Carrie, Kentucky
Current Conditions -  °F | °C
As of 3:53 AM on Monday 24 Nov 2014 (Local Time) from KJKL Reporting Station
Overcast Overcast  
Wind Chill: 62°   Ceiling: 4600
Heat Index: 62°   Visibility: 10mi
Dew Point: 52°   Wind: 7mph
Humidity: 70%   Direction: NA
Pressure: 29.51"   Gusts: NA
Location:  37.33°N, 83.03°W
Report Text: KJKL 240853Z AUTO VRB06KT 10SM SCT038 BKN046 OVC060 17/11 A2951 RMK AO2 SLP985 60000 T01670111 50007
Loading
Personal Weather Stations






























Interactive Weather Map New forecast layout! Learn more

10-Day Weather Forecast

Advertisements
Track Severe Weather on mobile